Time;durP1;ratioP1;P1;durP2;ratioP2;P2;SDS_P1;SDS_P2;PMS_P1;PMS_P2;Temp;Humidity;BMP_temperature;BMP_pressure;BME280_temperature;BME280_humidity;BME280_pressure;Samples;Min_cycle;Max_cycle;Signal;HPM_P1;HPM_P2
2021/08/03 00:00:15;;;;;;;;;;;;;;;22.65;48.55;95689.50;1046737;28;1222;-69
2021/08/03 00:00:49;;;;;;;;;;;;;;;22.65;48.38;95697.41;1040888;28;2329;-70
2021/08/03 00:01:19;;;;;;;;;;;;;;;22.65;48.59;95698.22;1044862;28;799;-70
2021/08/03 00:01:50;;;;;;;;;;;;;;;22.65;48.45;95689.50;1041253;28;1315;-70
2021/08/03 00:02:21;;;;;;;;;;;;;;;22.65;48.47;95690.28;1041300;28;1222;-69
2021/08/03 00:02:52;;;;;;;;;;;;;;;22.66;48.46;95685.78;1036866;28;2373;-70
2021/08/03 00:03:30;;;;;;;;;;;;;;;22.64;48.63;95680.81;1035500;28;1670;-67
2021/08/03 00:04:04;;;;;;;;;;;;;;;22.65;48.42;95689.50;1035553;28;1243;-70
2021/08/03 00:04:41;;;;;;;;;;;;;;;22.65;48.29;95686.84;1027895;28;1988;-69
2021/08/03 00:05:15;;;;;;;;;;;;;;;22.66;48.49;95691.06;1026081;28;1918;-70
2021/08/03 00:05:47;;;;;;;;;;;;;;;22.65;48.46;95695.56;1031465;28;1913;-69
2021/08/03 00:06:18;;;;;;;;;;;;;;;22.65;48.64;95685.00;1034392;28;2784;-70
2021/08/03 00:06:55;;;;;;;;;;;;;;;22.66;48.29;95691.06;1036873;28;1192;-68
2021/08/03 00:07:26;;;;;;;;;;;;;;;22.65;48.28;95689.50;1028949;28;1414;-69
2021/08/03 00:07:57;;;;;;;;;;;;;;;22.65;48.57;95695.56;1029926;28;1438;-69
2021/08/03 00:08:28;;;;;;;;;;;;;;;22.67;48.28;95692.63;1030088;28;1140;-70
2021/08/03 00:08:58;;;;;;;;;;;;;;;22.65;48.45;95687.66;1031726;28;1184;-70
2021/08/03 00:09:30;;;;;;;;;;;;;;;22.66;48.58;95693.72;1038551;28;1200;-70
2021/08/03 00:10:00;;;;;;;;;;;;;;;22.65;48.52;95690.28;1037541;28;1179;-70
2021/08/03 00:10:31;;;;;;;;;;;;;;;22.65;48.77;95685.00;1034255;28;1353;-70
2021/08/03 00:11:02;;;;;;;;;;;;;;;22.65;48.75;95690.28;1032210;28;1321;-70
2021/08/03 00:11:32;;;;;;;;;;;;;;;22.66;48.57;95685.78;1032495;28;2803;-69
2021/08/03 00:12:03;;;;;;;;;;;;;;;22.67;48.75;95691.88;1036264;28;1792;-69
2021/08/03 00:12:33;;;;;;;;;;;;;;;22.67;48.89;95691.88;1037661;28;1608;-69
2021/08/03 00:13:04;;;;;;;;;;;;;;;22.67;48.67;95686.59;1042417;28;1143;-69
2021/08/03 00:13:35;;;;;;;;;;;;;;;22.67;48.45;95689.22;1033524;28;1204;-68
2021/08/03 00:14:05;;;;;;;;;;;;;;;22.67;48.88;95697.16;1038854;28;1440;-69
2021/08/03 00:14:36;;;;;;;;;;;;;;;22.67;48.49;95691.88;1041020;28;1023;-69
2021/08/03 00:15:06;;;;;;;;;;;;;;;22.67;48.72;95689.22;1037895;28;1300;-70
2021/08/03 00:15:36;;;;;;;;;;;;;;;22.66;48.67;95691.06;1036979;28;1014;-70
2021/08/03 00:16:10;;;;;;;;;;;;;;;22.65;48.74;95689.50;1036422;28;1165;-70
2021/08/03 00:16:41;;;;;;;;;;;;;;;22.66;48.72;95683.16;1031556;28;2561;-70
2021/08/03 00:17:13;;;;;;;;;;;;;;;22.65;48.70;95685.00;1033233;28;2040;-69
2021/08/03 00:17:43;;;;;;;;;;;;;;;22.67;48.59;95681.31;1038585;28;737;-70
2021/08/03 00:18:17;;;;;;;;;;;;;;;22.67;48.49;95678.66;1041823;28;1255;-69
2021/08/03 00:18:47;;;;;;;;;;;;;;;22.67;48.70;95678.66;1044846;28;1093;-69
2021/08/03 00:19:18;;;;;;;;;;;;;;;22.65;48.75;95679.72;1036700;28;954;-70
2021/08/03 00:19:48;;;;;;;;;;;;;;;22.66;48.89;95677.88;1031962;28;2015;-68
2021/08/03 00:20:18;;;;;;;;;;;;;;;22.65;48.54;95682.34;1036192;28;1428;-68
2021/08/03 00:20:49;;;;;;;;;;;;;;;22.65;48.68;95682.34;1037732;28;1124;-70
2021/08/03 00:21:19;;;;;;;;;;;;;;;22.65;48.71;95682.34;1041212;28;974;-69
2021/08/03 00:21:50;;;;;;;;;;;;;;;22.67;48.94;95686.59;1040809;28;3141;-68
2021/08/03 00:22:23;;;;;;;;;;;;;;;22.65;48.56;95685.00;1044265;28;2005;-68
2021/08/03 00:22:59;;;;;;;;;;;;;;;22.67;48.49;95681.31;1042004;28;1135;-70
2021/08/03 00:23:29;;;;;;;;;;;;;;;22.67;48.77;95686.59;1042312;28;1228;-69
2021/08/03 00:23:59;;;;;;;;;;;;;;;22.67;48.68;95686.59;1035955;28;1941;-69
2021/08/03 00:24:30;;;;;;;;;;;;;;;22.67;48.90;95682.06;1032203;28;824;-69
2021/08/03 00:25:00;;;;;;;;;;;;;;;22.65;48.71;95674.44;1026883;28;1292;-69
2021/08/03 00:25:30;;;;;;;;;;;;;;;22.65;48.51;95674.44;1029618;28;1538;-68
2021/08/03 00:26:01;;;;;;;;;;;;;;;22.65;48.61;95677.06;1034699;28;1952;-69
2021/08/03 00:26:32;;;;;;;;;;;;;;;22.65;48.65;95679.72;1031639;28;2490;-68
2021/08/03 00:27:03;;;;;;;;;;;;;;;22.65;48.64;95674.44;1041231;28;1159;-69
2021/08/03 00:27:33;;;;;;;;;;;;;;;22.67;48.64;95676.00;1045532;28;769;-69
2021/08/03 00:28:05;;;;;;;;;;;;;;;22.66;48.65;95675.22;1042220;28;1482;-69
2021/08/03 00:28:36;;;;;;;;;;;;;;;22.66;48.65;95669.94;1037509;28;827;-68
2021/08/03 00:29:06;;;;;;;;;;;;;;;22.65;48.67;95677.06;1035742;28;1191;-70
2021/08/03 00:29:37;;;;;;;;;;;;;;;22.66;48.53;95669.94;1031911;28;1247;-69
2021/08/03 00:30:07;;;;;;;;;;;;;;;22.67;48.83;95671.50;1029887;28;1250;-69
2021/08/03 00:30:37;;;;;;;;;;;;;;;22.65;48.63;95666.50;1029738;28;1045;-68
2021/08/03 00:31:08;;;;;;;;;;;;;;;22.65;48.71;95663.88;1031656;28;1106;-69
2021/08/03 00:31:38;;;;;;;;;;;;;;;22.65;48.78;95669.16;1035993;28;2798;-69
2021/08/03 00:32:08;;;;;;;;;;;;;;;22.67;48.80;95660.94;1036995;28;1097;-69
2021/08/03 00:32:39;;;;;;;;;;;;;;;22.65;48.81;95661.22;1040083;28;1967;-69
2021/08/03 00:33:09;;;;;;;;;;;;;;;22.65;48.96;95661.22;1048346;28;1760;-69
2021/08/03 00:33:40;;;;;;;;;;;;;;;22.65;48.96;95663.88;1041363;28;1045;-69
2021/08/03 00:34:10;;;;;;;;;;;;;;;22.65;48.83;95663.88;1044389;28;1235;-69
2021/08/03 00:34:40;;;;;;;;;;;;;;;22.65;48.61;95661.22;1040695;28;1130;-70
2021/08/03 00:35:11;;;;;;;;;;;;;;;22.65;48.77;95663.88;1037416;28;1379;-69
2021/08/03 00:35:41;;;;;;;;;;;;;;;22.65;48.81;95663.88;1028816;28;3037;-70
2021/08/03 00:36:12;;;;;;;;;;;;;;;22.67;49.08;95670.72;1036288;28;2576;-70
2021/08/03 00:36:42;;;;;;;;;;;;;;;22.66;48.71;95669.94;1034566;28;2842;-70
2021/08/03 00:37:14;;;;;;;;;;;;;;;22.67;48.91;95670.72;1029250;28;1216;-69
2021/08/03 00:37:44;;;;;;;;;;;;;;;22.67;48.70;95662.81;1032809;28;1175;-69
2021/08/03 00:38:15;;;;;;;;;;;;;;;22.65;48.86;95669.16;1032653;28;1425;-69
2021/08/03 00:38:45;;;;;;;;;;;;;;;22.65;48.81;95671.78;1035250;28;1405;-68
2021/08/03 00:39:15;;;;;;;;;;;;;;;22.66;48.66;95669.94;1041117;28;1159;-69
2021/08/03 00:39:46;;;;;;;;;;;;;;;22.65;48.92;95669.16;1047713;28;980;-69
2021/08/03 00:40:16;;;;;;;;;;;;;;;22.66;48.74;95667.31;1044359;28;1922;-68
2021/08/03 00:40:59;;;;;;;;;;;;;;;22.67;48.78;95670.72;1041313;28;1108;-69
2021/08/03 00:41:30;;;;;;;;;;;;;;;22.66;48.80;95667.31;1037099;28;2543;-70
2021/08/03 00:42:01;;;;;;;;;;;;;;;22.66;48.91;95669.94;1037008;28;1402;-69
2021/08/03 00:42:32;;;;;;;;;;;;;;;22.67;48.91;95668.09;1036908;28;2691;-69
2021/08/03 00:43:02;;;;;;;;;;;;;;;22.65;49.07;95671.78;1034175;28;2145;-69
2021/08/03 00:43:32;;;;;;;;;;;;;;;22.65;49.01;95671.78;1033659;28;1006;-68
2021/08/03 00:44:03;;;;;;;;;;;;;;;22.66;48.85;95675.22;1046578;28;1140;-68
2021/08/03 00:44:43;;;;;;;;;;;;;;;22.65;49.02;95671.78;1045779;28;1125;-69
2021/08/03 00:45:13;;;;;;;;;;;;;;;22.66;49.14;95675.22;1044965;28;1310;-69
2021/08/03 00:45:44;;;;;;;;;;;;;;;22.65;48.91;95679.72;1041036;28;1261;-69
2021/08/03 00:46:14;;;;;;;;;;;;;;;22.67;48.93;95676.78;1041117;28;1922;-69
2021/08/03 00:46:45;;;;;;;;;;;;;;;22.67;48.80;95678.66;1041713;28;2750;-69
2021/08/03 00:47:15;;;;;;;;;;;;;;;22.66;48.99;95669.94;1045545;28;1123;-70
2021/08/03 00:47:46;;;;;;;;;;;;;;;22.65;48.73;95674.44;1049235;28;1320;-69
2021/08/03 00:48:16;;;;;;;;;;;;;;;22.65;48.87;95669.16;1041877;28;1195;-69
2021/08/03 00:48:46;;;;;;;;;;;;;;;22.67;48.84;95676.78;1040909;28;1870;-67
2021/08/03 00:49:17;;;;;;;;;;;;;;;22.65;48.80;95682.34;1041133;28;986;-69
2021/08/03 00:49:48;;;;;;;;;;;;;;;22.65;48.77;95671.78;1045568;28;1158;-69
2021/08/03 00:50:18;;;;;;;;;;;;;;;22.67;48.95;95676.00;1041365;28;1026;-69
2021/08/03 00:50:48;;;;;;;;;;;;;;;22.66;48.95;95680.50;1042020;28;1288;-69
2021/08/03 00:51:21;;;;;;;;;;;;;;;22.65;48.85;95669.16;1043462;28;1352;-68
2021/08/03 00:51:51;;;;;;;;;;;;;;;22.66;49.02;95675.22;1037074;28;2736;-67
2021/08/03 00:52:22;;;;;;;;;;;;;;;22.66;48.91;95675.22;1037527;28;999;-69
2021/08/03 00:52:52;;;;;;;;;;;;;;;22.66;48.81;95667.31;1035859;28;1135;-70
2021/08/03 00:53:23;;;;;;;;;;;;;;;22.66;48.78;95680.50;1032846;28;1230;-68
2021/08/03 00:53:53;;;;;;;;;;;;;;;22.66;48.73;95669.94;1035829;28;1065;-69
2021/08/03 00:54:24;;;;;;;;;;;;;;;22.66;49.15;95675.22;1041158;28;1036;-68
2021/08/03 00:54:54;;;;;;;;;;;;;;;22.65;49.04;95671.78;1040221;28;1360;-69
2021/08/03 00:55:25;;;;;;;;;;;;;;;22.66;48.81;95677.88;1036657;28;1304;-69
2021/08/03 00:55:55;;;;;;;;;;;;;;;22.67;48.83;95677.56;1040060;28;1116;-69
2021/08/03 00:56:26;;;;;;;;;;;;;;;22.67;49.09;95683.94;1037305;28;1370;-68
2021/08/03 00:56:56;;;;;;;;;;;;;;;22.67;49.08;95676.00;1039869;28;2483;-67
2021/08/03 00:57:27;;;;;;;;;;;;;;;22.65;48.88;95671.78;1033085;28;1111;-68
2021/08/03 00:57:57;;;;;;;;;;;;;;;22.67;48.99;95681.31;1039472;28;1537;-68
2021/08/03 00:58:27;;;;;;;;;;;;;;;22.66;48.74;95683.16;1042887;28;1155;-68
2021/08/03 00:58:58;;;;;;;;;;;;;;;22.66;49.14;95675.22;1042994;28;1121;-68
2021/08/03 00:59:28;;;;;;;;;;;;;;;22.67;48.94;95681.31;1043081;28;1155;-67
2021/08/03 00:59:59;;;;;;;;;;;;;;;22.65;49.09;95677.06;1041857;28;1184;-69
2021/08/03 01:00:29;;;;;;;;;;;;;;;22.67;49.03;95676.00;1040977;28;1313;-68
2021/08/03 01:00:59;;;;;;;;;;;;;;;22.67;49.09;95676.00;1040322;28;1405;-70
2021/08/03 01:01:30;;;;;;;;;;;;;;;22.67;49.28;95674.13;1044794;28;1355;-69
2021/08/03 01:02:04;;;;;;;;;;;;;;;22.67;48.89;95670.72;1045074;28;2278;-69
2021/08/03 01:02:34;;;;;;;;;;;;;;;22.67;49.02;95670.72;1040687;28;1475;-69
2021/08/03 01:03:04;;;;;;;;;;;;;;;22.66;48.89;95664.66;1035635;28;1201;-69
2021/08/03 01:03:34;;;;;;;;;;;;;;;22.66;49.20;95669.94;1037480;28;1180;-68
2021/08/03 01:04:09;;;;;;;;;;;;;;;22.67;49.14;95670.72;1039776;28;1164;-69
2021/08/03 01:04:40;;;;;;;;;;;;;;;22.67;49.15;95674.13;1041934;28;1967;-69
2021/08/03 01:05:10;;;;;;;;;;;;;;;22.67;48.95;95676.00;1037257;28;2482;-69
2021/08/03 01:05:59;;;;;;;;;;;;;;;22.65;48.92;95669.16;1035362;28;3051;-68
2021/08/03 01:06:37;;;;;;;;;;;;;;;22.66;48.74;95672.59;1037638;28;1892;-69
2021/08/03 01:07:26;;;;;;;;;;;;;;;22.67;48.94;95679.41;1040607;28;942;-68
2021/08/03 01:08:15;;;;;;;;;;;;;;;22.66;49.17;95672.59;1042557;28;1329;-68
2021/08/03 01:08:54;;;;;;;;;;;;;;;22.67;48.98;95673.38;1037940;28;1519;-66
2021/08/03 01:09:28;;;;;;;;;;;;;;;22.67;49.16;95671.50;1036317;28;832;-67
2021/08/03 01:10:06;;;;;;;;;;;;;;;22.67;49.08;95677.56;1024727;28;1236;-69
2021/08/03 01:10:45;;;;;;;;;;;;;;;22.67;49.05;95679.41;1024756;29;1412;-68
2021/08/03 01:11:21;;;;;;;;;;;;;;;22.67;48.96;95676.00;1024608;28;1499;-69
2021/08/03 01:11:54;;;;;;;;;;;;;;;22.66;48.75;95680.50;1035908;28;2374;-68
2021/08/03 01:12:45;;;;;;;;;;;;;;;22.67;49.15;95682.84;1041424;28;891;-68
2021/08/03 01:13:31;;;;;;;;;;;;;;;22.67;48.73;95681.31;1029987;28;1651;-69
2021/08/03 01:14:27;;;;;;;;;;;;;;;22.67;48.99;95682.06;1034281;28;1043;-69
2021/08/03 01:15:18;;;;;;;;;;;;;;;22.67;48.93;95680.22;1040100;28;1182;-69
2021/08/03 01:16:03;;;;;;;;;;;;;;;22.67;48.78;95681.31;1044048;28;1819;-69
2021/08/03 01:16:41;;;;;;;;;;;;;;;22.67;48.71;95679.41;1041671;28;1146;-69
2021/08/03 01:17:23;;;;;;;;;;;;;;;22.67;48.62;95679.41;1038480;28;1211;-69
2021/08/03 01:17:54;;;;;;;;;;;;;;;22.67;49.08;95676.78;1040459;28;1116;-69
2021/08/03 01:18:51;;;;;;;;;;;;;;;22.67;48.88;95682.84;1042099;28;1215;-68
2021/08/03 01:19:47;;;;;;;;;;;;;;;22.67;48.81;95680.22;1023981;29;1403;-68
2021/08/03 01:20:22;;;;;;;;;;;;;;;22.68;48.91;95683.66;1040311;28;1346;-68
2021/08/03 01:20:53;;;;;;;;;;;;;;;22.67;48.81;95682.84;1038131;28;1029;-68
2021/08/03 01:21:33;;;;;;;;;;;;;;;22.68;48.99;95683.66;1041860;28;1142;-69
2021/08/03 01:22:18;;;;;;;;;;;;;;;22.67;48.49;95688.13;1038802;28;2870;-69
2021/08/03 01:22:54;;;;;;;;;;;;;;;22.67;48.81;95682.06;1042367;28;1096;-67
2021/08/03 01:23:27;;;;;;;;;;;;;;;22.67;48.96;95677.56;1045280;28;1139;-69
2021/08/03 01:24:10;;;;;;;;;;;;;;;22.68;48.87;95683.66;1044416;28;1626;-68
2021/08/03 01:24:40;;;;;;;;;;;;;;;22.67;49.26;95677.56;1040435;28;999;-69
2021/08/03 01:25:29;;;;;;;;;;;;;;;22.68;48.99;95688.94;1044784;28;1303;-69
2021/08/03 01:26:04;;;;;;;;;;;;;;;22.67;49.13;95690.78;1045799;28;1973;-69
2021/08/03 01:26:49;;;;;;;;;;;;;;;22.67;49.23;95682.84;1048359;28;1177;-69
2021/08/03 01:27:28;;;;;;;;;;;;;;;22.67;49.10;95685.50;1040757;28;1180;-69
2021/08/03 01:28:11;;;;;;;;;;;;;;;22.67;49.14;95682.84;1035498;28;1264;-69
2021/08/03 01:28:42;;;;;;;;;;;;;;;22.68;49.26;95681.00;1031306;28;1245;-70
2021/08/03 01:29:12;;;;;;;;;;;;;;;22.67;48.91;95685.50;1031487;28;1334;-70
2021/08/03 01:29:43;;;;;;;;;;;;;;;22.68;49.02;95681.00;1034307;28;1144;-70
2021/08/03 01:30:13;;;;;;;;;;;;;;;22.67;48.95;95685.50;1036138;28;2457;-69
2021/08/03 01:30:45;;;;;;;;;;;;;;;22.67;49.17;95680.22;1032679;28;1408;-69
2021/08/03 01:31:17;;;;;;;;;;;;;;;22.67;48.99;95685.50;1028843;28;801;-69
2021/08/03 01:31:48;;;;;;;;;;;;;;;22.67;49.27;95685.50;1028741;28;2597;-69
2021/08/03 01:32:21;;;;;;;;;;;;;;;22.67;49.27;95681.31;1037550;28;827;-69
2021/08/03 01:32:52;;;;;;;;;;;;;;;22.68;49.32;95686.28;1038259;28;1113;-69
2021/08/03 01:33:24;;;;;;;;;;;;;;;22.68;49.38;95681.00;1032528;28;1702;-69
2021/08/03 01:33:59;;;;;;;;;;;;;;;22.67;49.14;95682.84;1026672;28;1245;-69
2021/08/03 01:34:30;;;;;;;;;;;;;;;22.67;49.14;95684.69;1033561;28;1138;-69
2021/08/03 01:35:00;;;;;;;;;;;;;;;22.67;49.35;95688.13;1031470;28;2616;-72
2021/08/03 01:35:31;;;;;;;;;;;;;;;22.67;49.21;95682.84;1027225;28;2237;-70
2021/08/03 01:36:01;;;;;;;;;;;;;;;22.67;49.38;95679.41;1032337;28;2226;-69
2021/08/03 01:36:34;;;;;;;;;;;;;;;22.67;49.46;95677.56;1024673;28;1172;-69
2021/08/03 01:37:05;;;;;;;;;;;;;;;22.68;49.11;95678.38;1027076;28;2863;-70
2021/08/03 01:37:44;;;;;;;;;;;;;;;22.68;49.46;95678.38;1033294;28;1034;-70
2021/08/03 01:38:16;;;;;;;;;;;;;;;22.67;49.37;95682.84;1039902;28;1224;-69
2021/08/03 01:38:46;;;;;;;;;;;;;;;22.67;49.29;95676.78;1040799;28;1072;-69
2021/08/03 01:39:17;;;;;;;;;;;;;;;22.69;49.14;95689.72;1036539;28;840;-70
2021/08/03 01:39:55;;;;;;;;;;;;;;;22.67;49.36;95680.22;1038275;28;1276;-69
2021/08/03 01:40:26;;;;;;;;;;;;;;;22.67;49.37;95685.50;1037907;28;1176;-69
2021/08/03 01:40:59;;;;;;;;;;;;;;;22.67;49.16;95674.13;1038487;28;1128;-69
2021/08/03 01:41:30;;;;;;;;;;;;;;;22.68;49.56;95678.38;1037881;28;1159;-67
2021/08/03 01:42:00;;;;;;;;;;;;;;;22.67;49.05;95681.31;1034492;28;2538;-69
2021/08/03 01:42:31;;;;;;;;;;;;;;;22.67;49.43;95677.56;1037534;28;962;-68
2021/08/03 01:43:01;;;;;;;;;;;;;;;22.67;49.63;95672.28;1032988;28;1217;-68
2021/08/03 01:43:32;;;;;;;;;;;;;;;22.67;49.17;95683.94;1031730;28;1177;-69
2021/08/03 01:44:02;;;;;;;;;;;;;;;22.69;49.33;95684.44;1031631;28;1209;-68
2021/08/03 01:44:33;;;;;;;;;;;;;;;22.68;49.46;95678.38;1028859;28;986;-67
2021/08/03 01:45:04;;;;;;;;;;;;;;;22.67;49.12;95677.56;1032963;28;1232;-70
2021/08/03 01:45:34;;;;;;;;;;;;;;;22.67;49.16;95674.13;1036638;28;1419;-69
2021/08/03 01:46:04;;;;;;;;;;;;;;;22.67;49.20;95677.56;1035698;28;1896;-70
2021/08/03 01:46:35;;;;;;;;;;;;;;;22.67;49.44;95674.94;1033256;28;923;-67
2021/08/03 01:47:05;;;;;;;;;;;;;;;22.67;49.14;95671.50;1030870;28;2476;-69
2021/08/03 01:47:36;;;;;;;;;;;;;;;22.67;49.14;95685.50;1039857;28;1076;-70
2021/08/03 01:48:07;;;;;;;;;;;;;;;22.67;49.48;95680.22;1037632;28;1183;-67
2021/08/03 01:48:37;;;;;;;;;;;;;;;22.68;49.42;95670.44;1040265;28;913;-70
2021/08/03 01:49:08;;;;;;;;;;;;;;;22.67;49.44;95677.56;1033457;28;1255;-69
2021/08/03 01:49:39;;;;;;;;;;;;;;;22.67;49.26;95679.41;1027800;28;1916;-69
2021/08/03 01:50:10;;;;;;;;;;;;;;;22.67;49.23;95677.56;1031849;28;1215;-70
2021/08/03 01:50:44;;;;;;;;;;;;;;;22.67;49.20;95669.66;1029343;28;828;-69
2021/08/03 01:51:14;;;;;;;;;;;;;;;22.67;49.50;95670.72;1037017;28;823;-70
2021/08/03 01:51:45;;;;;;;;;;;;;;;22.67;49.20;95670.72;1039007;28;1927;-70
2021/08/03 01:52:15;;;;;;;;;;;;;;;22.67;49.38;95671.50;1040964;28;2462;-68
2021/08/03 01:52:46;;;;;;;;;;;;;;;22.67;49.25;95676.00;1037315;28;1417;-69
2021/08/03 01:53:18;;;;;;;;;;;;;;;22.67;49.16;95672.28;1035921;28;1464;-69
2021/08/03 01:53:48;;;;;;;;;;;;;;;22.67;49.24;95668.84;1037161;28;1183;-69
2021/08/03 01:54:18;;;;;;;;;;;;;;;22.67;49.20;95667.00;1036629;28;1692;-70
2021/08/03 01:54:49;;;;;;;;;;;;;;;22.70;49.53;95675.41;1040362;28;1167;-69
2021/08/03 01:55:19;;;;;;;;;;;;;;;22.67;49.23;95667.00;1032395;28;1300;-69
2021/08/03 01:55:51;;;;;;;;;;;;;;;22.68;49.22;95667.78;1032338;28;1381;-68
2021/08/03 01:56:22;;;;;;;;;;;;;;;22.67;49.56;95672.28;1028799;28;1374;-70
2021/08/03 01:56:52;;;;;;;;;;;;;;;22.69;49.34;95668.59;1025611;28;2545;-70
2021/08/03 01:57:22;;;;;;;;;;;;;;;22.67;49.48;95672.28;1029033;28;778;-68
2021/08/03 01:57:53;;;;;;;;;;;;;;;22.67;49.48;95668.09;1033669;28;1356;-69
2021/08/03 01:58:23;;;;;;;;;;;;;;;22.67;49.20;95670.72;1032562;28;1235;-69
2021/08/03 01:58:54;;;;;;;;;;;;;;;22.67;49.36;95668.09;1033029;28;1093;-68
2021/08/03 01:59:24;;;;;;;;;;;;;;;22.67;49.51;95668.09;1032647;28;986;-69
2021/08/03 01:59:55;;;;;;;;;;;;;;;22.67;49.37;95677.56;1029867;28;1921;-69
2021/08/03 02:00:25;;;;;;;;;;;;;;;22.67;49.37;95674.94;1034220;28;1175;-68
2021/08/03 02:00:55;;;;;;;;;;;;;;;22.67;49.21;95669.66;1034124;28;1179;-70
2021/08/03 02:01:27;;;;;;;;;;;;;;;22.67;49.64;95660.16;1034813;28;1377;-68
2021/08/03 02:01:58;;;;;;;;;;;;;;;22.67;49.38;95660.16;1035023;28;2925;-70
2021/08/03 02:02:28;;;;;;;;;;;;;;;22.67;49.38;95668.09;1033152;28;1240;-70
2021/08/03 02:02:59;;;;;;;;;;;;;;;22.65;49.54;95661.22;1031657;28;1624;-70
2021/08/03 02:03:32;;;;;;;;;;;;;;;22.67;49.57;95666.22;1031466;28;2482;-69
2021/08/03 02:04:03;;;;;;;;;;;;;;;22.66;49.45;95669.94;1032441;28;2157;-68
2021/08/03 02:04:33;;;;;;;;;;;;;;;22.67;49.49;95663.56;1037468;28;1973;-69
2021/08/03 02:05:04;;;;;;;;;;;;;;;22.67;49.28;95660.16;1035588;28;1229;-70
2021/08/03 02:05:35;;;;;;;;;;;;;;;22.70;49.57;95664.84;1035397;28;2925;-70
2021/08/03 02:06:06;;;;;;;;;;;;;;;22.67;49.58;95667.00;1038032;28;1977;-68
2021/08/03 02:06:37;;;;;;;;;;;;;;;22.67;49.45;95665.44;1037334;28;793;-70
2021/08/03 02:07:12;;;;;;;;;;;;;;;22.67;49.64;95664.34;1032723;28;2541;-69
2021/08/03 02:07:43;;;;;;;;;;;;;;;22.67;49.10;95663.56;1037505;28;808;-69
2021/08/03 02:08:15;;;;;;;;;;;;;;;22.67;49.33;95660.16;1038243;28;1286;-69
2021/08/03 02:08:46;;;;;;;;;;;;;;;22.67;49.43;95663.56;1039545;28;1548;-68
2021/08/03 02:09:20;;;;;;;;;;;;;;;22.67;49.58;95666.22;1036983;28;838;-70
2021/08/03 02:09:50;;;;;;;;;;;;;;;22.67;49.56;95668.09;1029073;28;1213;-68
2021/08/03 02:10:20;;;;;;;;;;;;;;;22.67;49.51;95666.22;1028964;28;1155;-68
2021/08/03 02:10:51;;;;;;;;;;;;;;;22.66;49.37;95667.31;1032728;28;1253;-69
2021/08/03 02:11:25;;;;;;;;;;;;;;;22.67;49.38;95663.56;1036643;28;1233;-69
2021/08/03 02:11:55;;;;;;;;;;;;;;;22.67;49.65;95668.09;1035915;28;2458;-69
2021/08/03 02:12:26;;;;;;;;;;;;;;;22.67;49.63;95662.81;1035319;28;1483;-69
2021/08/03 02:12:57;;;;;;;;;;;;;;;22.67;49.56;95657.53;1034670;28;1148;-68
2021/08/03 02:13:27;;;;;;;;;;;;;;;22.66;49.49;95659.38;1036664;28;1239;-69
2021/08/03 02:13:58;;;;;;;;;;;;;;;22.67;49.22;95665.44;1035050;28;1274;-69
2021/08/03 02:14:28;;;;;;;;;;;;;;;22.67;49.71;95660.94;1032928;28;1586;-69
2021/08/03 02:14:59;;;;;;;;;;;;;;;22.65;49.24;95663.88;1033545;28;1239;-69
2021/08/03 02:15:30;;;;;;;;;;;;;;;22.67;49.50;95663.56;1032212;28;1744;-68
2021/08/03 02:16:00;;;;;;;;;;;;;;;22.67;49.46;95662.81;1032193;28;1255;-70
2021/08/03 02:16:31;;;;;;;;;;;;;;;22.66;49.43;95659.38;1028223;28;1339;-68
2021/08/03 02:17:02;;;;;;;;;;;;;;;22.66;49.39;95659.38;1031955;28;2423;-68
2021/08/03 02:17:32;;;;;;;;;;;;;;;22.67;49.63;95662.81;1033049;28;864;-69
2021/08/03 02:18:02;;;;;;;;;;;;;;;22.66;49.47;95662.00;1040646;28;1124;-68
2021/08/03 02:18:33;;;;;;;;;;;;;;;22.67;49.57;95665.44;1032307;28;1276;-68
2021/08/03 02:19:03;;;;;;;;;;;;;;;22.67;49.51;95660.16;1030921;28;940;-69
2021/08/03 02:19:34;;;;;;;;;;;;;;;22.66;49.68;95656.72;1035899;28;1826;-69
2021/08/03 02:20:05;;;;;;;;;;;;;;;22.67;49.44;95654.88;1035694;28;1331;-69
2021/08/03 02:20:35;;;;;;;;;;;;;;;22.66;49.41;95659.38;1041708;28;1159;-69
2021/08/03 02:21:05;;;;;;;;;;;;;;;22.66;49.64;95651.44;1047467;28;1115;-69
2021/08/03 02:21:36;;;;;;;;;;;;;;;22.67;49.43;95655.63;1040612;28;1343;-68
2021/08/03 02:22:06;;;;;;;;;;;;;;;22.65;49.51;95648.00;1035319;28;2119;-69
2021/08/03 02:22:36;;;;;;;;;;;;;;;22.67;49.70;95652.25;1031723;28;2053;-67
2021/08/03 02:23:07;;;;;;;;;;;;;;;22.67;49.34;95649.59;1035744;28;1085;-68
2021/08/03 02:23:37;;;;;;;;;;;;;;;22.66;49.44;95654.09;1032295;28;1168;-69
2021/08/03 02:24:07;;;;;;;;;;;;;;;22.65;49.57;95648.00;1039900;28;1250;-69
2021/08/03 02:24:38;;;;;;;;;;;;;;;22.67;49.56;95653.00;1039295;28;1392;-69
2021/08/03 02:25:10;;;;;;;;;;;;;;;22.65;49.44;95640.09;1040994;28;1332;-70
2021/08/03 02:25:40;;;;;;;;;;;;;;;22.67;49.77;95646.94;1044873;28;1368;-71
2021/08/03 02:26:11;;;;;;;;;;;;;;;22.65;49.49;95645.38;1044325;28;1961;-70
2021/08/03 02:26:41;;;;;;;;;;;;;;;22.65;49.58;95653.28;1044588;28;1551;-70
2021/08/03 02:27:11;;;;;;;;;;;;;;;22.66;49.36;95651.44;1043760;28;2508;-69
2021/08/03 02:27:42;;;;;;;;;;;;;;;22.65;49.60;95647.22;1045288;28;1375;-69
2021/08/03 02:28:12;;;;;;;;;;;;;;;22.65;49.67;95645.38;1043645;28;1649;-69
2021/08/03 02:28:43;;;;;;;;;;;;;;;22.65;49.45;95648.00;1044618;28;1187;-69
2021/08/03 02:29:13;;;;;;;;;;;;;;;22.65;49.40;95649.88;1048386;28;1163;-70
2021/08/03 02:29:44;;;;;;;;;;;;;;;22.65;49.46;95642.72;1048930;28;550;-70
2021/08/03 02:30:14;;;;;;;;;;;;;;;22.65;49.49;95647.22;1043124;28;1001;-69
2021/08/03 02:30:46;;;;;;;;;;;;;;;22.65;49.47;95648.00;1040746;28;1274;-70
2021/08/03 02:31:19;;;;;;;;;;;;;;;22.65;49.46;95645.38;1039369;28;1353;-69
2021/08/03 02:31:54;;;;;;;;;;;;;;;22.65;49.56;95639.28;1035157;28;2535;-70
2021/08/03 02:32:26;;;;;;;;;;;;;;;22.65;49.82;95642.72;1035713;28;3052;-70
2021/08/03 02:33:17;;;;;;;;;;;;;;;22.66;49.61;95643.53;1035773;28;1073;-69
2021/08/03 02:33:54;;;;;;;;;;;;;;;22.66;49.65;95643.53;1036707;28;1135;-68
2021/08/03 02:34:29;;;;;;;;;;;;;;;22.64;49.71;95635.88;1044626;28;902;-69
2021/08/03 02:35:09;;;;;;;;;;;;;;;22.65;49.67;95631.38;1044572;28;1194;-69
2021/08/03 02:35:49;;;;;;;;;;;;;;;22.65;49.51;95639.28;1044706;28;1247;-70
2021/08/03 02:36:22;;;;;;;;;;;;;;;22.65;49.51;95636.66;1038723;28;1489;-69
2021/08/03 02:36:53;;;;;;;;;;;;;;;22.65;49.50;95634.81;1036267;28;1480;-70
2021/08/03 02:37:26;;;;;;;;;;;;;;;22.65;49.68;95634.00;1030379;28;2483;-69
2021/08/03 02:38:00;;;;;;;;;;;;;;;22.64;49.60;95630.59;1031350;28;1264;-69
2021/08/03 02:38:32;;;;;;;;;;;;;;;22.65;49.72;95634.00;1032189;28;1660;-69
2021/08/03 02:39:02;;;;;;;;;;;;;;;22.65;49.45;95634.81;1034866;28;1180;-70
2021/08/03 02:39:33;;;;;;;;;;;;;;;22.64;49.71;95627.97;1028658;28;1326;-68
2021/08/03 02:40:04;;;;;;;;;;;;;;;22.65;49.61;95632.16;1029955;28;1210;-70
2021/08/03 02:40:34;;;;;;;;;;;;;;;22.65;49.53;95629.50;1028485;28;1373;-70
2021/08/03 02:41:04;;;;;;;;;;;;;;;22.65;49.52;95631.38;1028428;28;1450;-70
2021/08/03 02:41:35;;;;;;;;;;;;;;;22.65;49.50;95632.16;1028468;28;1128;-69
2021/08/03 02:42:06;;;;;;;;;;;;;;;22.65;49.79;95623.44;1029635;28;2576;-70
2021/08/03 02:42:37;;;;;;;;;;;;;;;22.65;49.99;95634.00;1024515;28;2886;-70
2021/08/03 02:43:07;;;;;;;;;;;;;;;22.65;49.67;95634.00;1033235;28;1152;-69
2021/08/03 02:43:38;;;;;;;;;;;;;;;22.65;49.39;95626.88;1032502;28;1168;-70
2021/08/03 02:44:08;;;;;;;;;;;;;;;22.65;49.74;95620.78;1031746;28;1248;-70
2021/08/03 02:44:39;;;;;;;;;;;;;;;22.65;49.77;95629.50;1028461;28;1537;-70
2021/08/03 02:45:11;;;;;;;;;;;;;;;22.65;49.52;95629.50;1027900;28;1819;-70
2021/08/03 02:45:41;;;;;;;;;;;;;;;22.65;49.57;95626.09;1032715;28;1247;-70
2021/08/03 02:46:14;;;;;;;;;;;;;;;22.65;49.54;95629.50;1029196;28;1910;-70
2021/08/03 02:46:45;;;;;;;;;;;;;;;22.65;49.58;95626.88;1037329;28;1284;-70
2021/08/03 02:47:25;;;;;;;;;;;;;;;22.65;49.81;95624.22;1040565;28;2604;-70
2021/08/03 02:47:58;;;;;;;;;;;;;;;22.65;49.59;95621.59;1041421;28;1462;-67
2021/08/03 02:48:29;;;;;;;;;;;;;;;22.65;49.79;95623.44;1041073;28;972;-69
2021/08/03 02:49:08;;;;;;;;;;;;;;;22.65;49.58;95620.78;1039605;28;1183;-68
2021/08/03 02:49:49;;;;;;;;;;;;;;;22.65;49.53;95626.88;1038613;28;805;-70
2021/08/03 02:50:23;;;;;;;;;;;;;;;22.65;49.60;95623.44;1043078;28;1060;-68
2021/08/03 02:50:54;;;;;;;;;;;;;;;22.65;49.47;95615.50;1035187;28;1302;-69
2021/08/03 02:51:24;;;;;;;;;;;;;;;22.65;49.76;95620.78;1036487;28;777;-70